createdAt,value
2022-10-30T00:04:52.118Z,13.70
2022-10-30T00:09:55.896Z,13.70
2022-10-30T00:14:59.689Z,13.88
2022-10-30T00:20:05.477Z,13.90
2022-10-30T00:25:09.810Z,13.30
2022-10-30T00:30:15.532Z,13.27
2022-10-30T00:35:20.722Z,14.27
2022-10-30T00:40:24.797Z,13.05
2022-10-30T00:45:28.958Z,14.48
2022-10-30T00:50:36.829Z,14.15
2022-10-30T00:55:43.832Z,14.15
2022-10-30T01:00:50.235Z,13.88
2022-10-30T01:05:59.136Z,13.88
2022-10-30T01:11:03.946Z,13.88
2022-10-30T01:16:38.415Z,14.93
2022-10-30T01:21:54.841Z,14.02
2022-10-30T01:27:07.616Z,15.65
2022-10-30T01:32:21.297Z,14.18
2022-10-30T01:37:34.304Z,15.18
2022-10-30T01:42:48.224Z,14.15
2022-10-30T01:48:10.313Z,14.38
2022-10-30T01:53:33.236Z,13.85
2022-10-30T01:58:43.578Z,14.10
2022-10-30T02:03:47.629Z,13.40
2022-10-30T02:08:52.825Z,13.80
2022-10-30T02:13:57.582Z,13.23
2022-10-30T02:19:01.810Z,13.82
2022-10-30T02:24:07.918Z,12.75
2022-10-30T02:29:11.980Z,14.25
2022-10-30T02:34:15.977Z,13.48
2022-10-30T02:39:22.475Z,14.07
2022-10-30T02:44:26.373Z,14.10
2022-10-30T02:49:30.343Z,14.30
2022-10-30T02:54:35.951Z,13.88
2022-10-30T02:59:39.901Z,14.00
2022-10-30T03:04:44.018Z,14.00
2022-10-30T03:09:49.742Z,14.57
2022-10-30T03:14:53.529Z,14.43
2022-10-30T03:19:57.319Z,15.65
2022-10-30T03:25:02.615Z,15.35
2022-10-30T03:30:07.321Z,14.70
2022-10-30T03:35:11.207Z,14.68
2022-10-30T03:40:16.573Z,13.80
2022-10-30T03:45:20.429Z,14.70
2022-10-30T03:50:24.399Z,14.60
2022-10-30T03:55:29.787Z,14.95
2022-10-30T04:00:34.624Z,14.95
2022-10-30T04:05:40.711Z,15.50
2022-10-30T04:10:48.255Z,14.87
2022-10-30T04:21:01.454Z,14.80
2022-10-30T04:26:07.270Z,14.00
2022-10-30T04:31:14.669Z,13.75
2022-10-30T04:36:21.787Z,14.40
2022-10-30T04:41:27.980Z,14.80
2022-10-30T04:46:43.381Z,14.50
2022-10-30T04:51:48.105Z,14.65
2022-10-30T04:56:55.260Z,14.30
2022-10-30T05:01:59.383Z,15.67
2022-10-30T05:07:04.083Z,15.70
2022-10-30T05:12:09.494Z,15.57
2022-10-30T05:17:24.542Z,14.88
2022-10-30T05:22:28.354Z,15.73
2022-10-30T05:27:33.564Z,15.63
2022-10-30T05:32:39.140Z,17.48
2022-10-30T05:37:42.925Z,16.67
2022-10-30T05:42:48.654Z,16.02
2022-10-30T05:47:56.910Z,16.63
2022-10-30T05:53:04.027Z,16.40
2022-10-30T05:58:09.360Z,17.65
2022-10-30T06:03:17.023Z,17.27
2022-10-30T06:08:21.142Z,16.90
2022-10-30T06:13:29.383Z,17.88
2022-10-30T06:18:49.771Z,16.50
2022-10-30T06:23:54.593Z,16.77
2022-10-30T06:29:13.638Z,17.02
2022-10-30T06:34:18.150Z,18.83
2022-10-30T06:39:22.040Z,19.15
2022-10-30T06:49:54.259Z,19.77
2022-10-30T06:54:58.310Z,19.17
2022-10-30T07:00:20.497Z,18.42
2022-10-30T07:05:56.446Z,18.38
2022-10-30T07:11:00.199Z,18.77
2022-10-30T07:16:23.663Z,18.65
2022-10-30T07:21:27.747Z,16.73
2022-10-30T07:26:33.605Z,17.42
2022-10-30T07:32:02.269Z,15.73
2022-10-30T07:37:09.998Z,16.38
2022-10-30T07:42:32.350Z,17.38
2022-10-30T07:48:00.869Z,16.48
2022-10-30T07:53:16.056Z,16.98
2022-10-30T07:58:22.172Z,16.08
2022-10-30T08:03:56.483Z,18.25
2022-10-30T08:09:05.757Z,18.50
2022-10-30T08:14:10.642Z,19.17
2022-10-30T08:19:15.822Z,17.65
2022-10-30T08:24:19.637Z,17.37
2022-10-30T08:29:26.064Z,18.45
2022-10-30T08:34:34.448Z,16.90
2022-10-30T08:39:42.536Z,18.67
2022-10-30T08:45:12.565Z,16.85
2022-10-30T08:55:44.614Z,16.63
2022-10-30T09:01:01.570Z,16.17
2022-10-30T09:06:33.338Z,17.13
2022-10-30T09:12:06.670Z,16.65
2022-10-30T09:17:22.409Z,16.98
2022-10-30T09:22:27.637Z,16.10
2022-10-30T09:27:31.733Z,16.55
2022-10-30T09:32:42.483Z,15.80
2022-10-30T09:37:49.825Z,15.02
2022-10-30T09:42:57.866Z,14.98
2022-10-30T09:48:30.564Z,15.02
2022-10-30T09:53:55.554Z,14.10
2022-10-30T09:59:11.601Z,13.48
2022-10-30T10:04:26.517Z,15.95
2022-10-30T10:09:51.329Z,14.35
2022-10-30T10:15:18.586Z,13.73
2022-10-30T10:20:28.589Z,11.27
2022-10-30T10:25:34.178Z,12.52
2022-10-30T10:30:45.031Z,13.52
2022-10-30T10:35:55.412Z,13.27
2022-10-30T10:41:07.482Z,13.80
2022-10-30T10:46:30.099Z,14.20
2022-10-30T10:51:36.494Z,13.75
2022-10-30T10:56:44.049Z,13.73
2022-10-30T11:01:53.553Z,13.73
2022-10-30T11:06:58.090Z,17.63
2022-10-30T11:12:03.284Z,13.83
2022-10-30T11:17:14.300Z,14.00
2022-10-30T11:22:22.577Z,15.02
2022-10-30T11:27:28.751Z,13.38
2022-10-30T11:32:34.087Z,12.20
2022-10-30T11:37:39.163Z,12.55
2022-10-30T11:42:46.553Z,11.95
2022-10-30T11:47:50.399Z,11.45
2022-10-30T11:52:56.924Z,12.38
2022-10-30T11:58:02.508Z,12.77
2022-10-30T12:03:06.988Z,12.75
2022-10-30T12:08:19.694Z,11.83
2022-10-30T12:13:25.802Z,12.43
2022-10-30T12:18:29.716Z,10.95
2022-10-30T12:23:34.080Z,10.27
2022-10-30T12:28:40.040Z,10.95
2022-10-30T12:33:46.994Z,12.50
2022-10-30T12:38:53.276Z,8.38
2022-10-30T12:44:03.957Z,10.45
2022-10-30T12:49:13.060Z,13.13
2022-10-30T12:54:22.346Z,12.80
2022-10-30T12:59:35.941Z,12.45
2022-10-30T13:04:42.293Z,12.38
2022-10-30T13:09:51.325Z,12.30
2022-10-30T13:14:59.260Z,12.73
2022-10-30T13:20:03.102Z,12.10
2022-10-30T13:25:12.166Z,12.48
2022-10-30T13:30:19.047Z,20.85
2022-10-30T13:35:31.605Z,12.77
2022-10-30T13:40:39.620Z,12.52
2022-10-30T13:45:59.318Z,12.93
2022-10-30T13:51:23.799Z,12.05
2022-10-30T13:56:27.692Z,13.00
2022-10-30T14:01:37.214Z,13.15
2022-10-30T14:06:47.229Z,14.10
2022-10-30T14:11:51.087Z,13.70
2022-10-30T14:17:14.594Z,15.85
2022-10-30T14:22:24.834Z,14.77
2022-10-30T14:27:29.970Z,13.52
2022-10-30T14:32:53.079Z,12.93
2022-10-30T14:37:58.187Z,14.43
2022-10-30T14:43:06.130Z,14.80
2022-10-30T14:48:16.729Z,89.32
2022-10-30T14:53:34.188Z,16.40
2022-10-30T14:58:39.650Z,17.17
2022-10-30T15:03:52.986Z,16.23
2022-10-30T15:09:11.778Z,16.05
2022-10-30T15:14:40.175Z,16.42
2022-10-30T15:19:49.439Z,24.08
2022-10-30T15:24:53.316Z,18.40
2022-10-30T15:29:59.676Z,20.17
2022-10-30T15:35:14.494Z,20.40
2022-10-30T15:40:22.685Z,23.35
2022-10-30T15:45:31.473Z,21.95
2022-10-30T15:50:37.101Z,24.15
2022-10-30T15:55:41.125Z,29.80
2022-10-30T16:00:56.560Z,29.08
2022-10-30T16:06:17.795Z,29.63
2022-10-30T16:11:22.813Z,28.20
2022-10-30T16:16:30.103Z,27.27
2022-10-30T16:21:35.733Z,26.83
2022-10-30T16:26:39.691Z,23.75
2022-10-30T16:31:44.451Z,25.75
2022-10-30T16:36:49.798Z,27.80
2022-10-30T16:41:53.607Z,28.65
2022-10-30T16:46:59.498Z,35.10
2022-10-30T16:57:16.271Z,31.05
2022-10-30T17:02:22.299Z,31.85
2022-10-30T17:07:28.071Z,28.20
2022-10-30T17:12:33.726Z,25.00
2022-10-30T17:17:39.592Z,16.98
2022-10-30T17:27:49.559Z,34.05
2022-10-30T17:32:55.241Z,36.70
2022-10-30T17:38:02.948Z,31.00
2022-10-30T17:43:07.148Z,30.23
2022-10-30T17:48:13.935Z,30.20
2022-10-30T17:53:21.886Z,31.85
2022-10-30T17:58:25.722Z,24.58
2022-10-30T18:03:29.623Z,24.95
2022-10-30T18:08:35.150Z,29.50
2022-10-30T18:13:38.964Z,25.55
2022-10-30T18:18:43.041Z,30.58
2022-10-30T18:23:52.789Z,39.08
2022-10-30T18:28:59.812Z,33.35
2022-10-30T18:34:03.596Z,32.78
2022-10-30T18:39:08.896Z,32.35
2022-10-30T18:44:15.751Z,31.37
2022-10-30T18:49:24.462Z,31.05
2022-10-30T18:54:29.742Z,33.20
2022-10-30T18:59:33.574Z,31.80
2022-10-30T19:04:37.333Z,24.83
2022-10-30T19:09:43.521Z,30.40
2022-10-30T19:14:49.421Z,33.17
2022-10-30T19:19:53.195Z,33.83
2022-10-30T19:24:58.346Z,35.65
2022-10-30T19:30:02.134Z,38.20
2022-10-30T19:35:06.699Z,38.85
2022-10-30T19:40:24.923Z,36.75
2022-10-30T19:45:30.773Z,40.00
2022-10-30T19:50:35.954Z,43.45
2022-10-30T19:55:43.321Z,45.53
2022-10-30T20:00:47.912Z,44.00
2022-10-30T20:05:51.746Z,38.88
2022-10-30T20:10:58.585Z,37.97
2022-10-30T20:16:05.166Z,31.85
2022-10-30T20:21:11.876Z,29.85
2022-10-30T20:26:24.432Z,28.25
2022-10-30T20:31:28.207Z,27.58
2022-10-30T20:36:31.986Z,27.17
2022-10-30T20:41:37.593Z,27.30
2022-10-30T20:46:43.667Z,25.42
2022-10-30T20:51:48.223Z,27.63
2022-10-30T20:56:53.431Z,27.33
2022-10-30T21:01:59.549Z,25.73
2022-10-30T21:07:03.773Z,26.55
2022-10-30T21:12:09.225Z,23.63
2022-10-30T21:17:13.260Z,24.87
2022-10-30T21:22:17.082Z,23.73
2022-10-30T21:27:22.497Z,23.05
2022-10-30T21:32:26.303Z,23.27
2022-10-30T21:37:30.262Z,20.33
2022-10-30T21:42:35.544Z,20.08
2022-10-30T21:47:39.408Z,19.70
2022-10-30T21:52:43.354Z,19.48
2022-10-30T21:57:48.555Z,19.90
2022-10-30T22:02:54.401Z,15.50
2022-10-30T22:07:58.470Z,18.85
2022-10-30T22:13:03.900Z,19.27
2022-10-30T22:18:07.940Z,18.50
2022-10-30T22:23:11.730Z,18.08
2022-10-30T22:33:27.691Z,18.13
2022-10-30T22:38:31.535Z,19.35
2022-10-30T22:43:36.949Z,16.50
2022-10-30T22:48:41.138Z,17.07
2022-10-30T22:53:45.409Z,16.77
2022-10-30T22:58:51.486Z,17.30
2022-10-30T23:09:01.345Z,17.15
2022-10-30T23:14:06.700Z,17.73
2022-10-30T23:19:11.751Z,17.60
2022-10-30T23:24:15.542Z,16.73
2022-10-30T23:29:20.882Z,16.25
2022-10-30T23:34:24.650Z,16.50
2022-10-30T23:39:29.449Z,16.17
2022-10-30T23:44:34.627Z,15.82
2022-10-30T23:49:38.417Z,14.97
2022-10-30T23:54:42.195Z,15.35
2022-10-30T23:59:47.574Z,16.08
